Time;durP1;ratioP1;P1;durP2;ratioP2;P2;SDS_P1;SDS_P2;PMS_P1;PMS_P2;Temp;Humidity;BMP_temperature;BMP_pressure;BME280_temperature;BME280_humidity;BME280_pressure;Samples;Min_cycle;Max_cycle;Signal;HPM_P1;HPM_P2
2022/09/15 00:00:25;;;;;;;;;;;;;;;17.18;89.45;95940.34;30001;982;1877;-56
2022/09/15 00:00:55;;;;;;;;;;;;;;;17.18;89.79;95943.09;30001;982;1881;-55
2022/09/15 00:01:26;;;;;;;;;;;;;;;17.16;89.49;95940.72;30001;982;1864;-57
2022/09/15 00:01:57;;;;;;;;;;;;;;;17.17;89.56;95944.25;30001;982;1860;-64
2022/09/15 00:02:28;;;;;;;;;;;;;;;17.18;89.11;95943.09;30001;982;1864;-56
2022/09/15 00:02:59;;;;;;;;;;;;;;;17.18;89.25;95941.16;30001;983;1871;-56
2022/09/15 00:03:30;;;;;;;;;;;;;;;17.18;89.54;95938.41;30001;983;1876;-57
2022/09/15 00:04:01;;;;;;;;;;;;;;;17.16;89.63;95935.22;30001;983;1880;-58
2022/09/15 00:04:35;;;;;;;;;;;;;;;17.16;89.48;95940.72;30001;983;1876;-55
2022/09/15 00:05:07;;;;;;;;;;;;;;;17.14;89.61;95932.03;30001;983;1867;-56
2022/09/15 00:05:38;;;;;;;;;;;;;;;17.15;89.60;95939.13;30001;983;1867;-56
2022/09/15 00:06:10;;;;;;;;;;;;;;;17.14;89.26;95937.53;30001;983;1867;-56
2022/09/15 00:06:40;;;;;;;;;;;;;;;17.14;89.47;95937.53;30001;983;1868;-56
2022/09/15 00:07:11;;;;;;;;;;;;;;;17.14;89.46;95932.03;30001;982;1881;-57
2022/09/15 00:07:43;;;;;;;;;;;;;;;17.16;89.60;95926.22;30001;982;1877;-55
2022/09/15 00:08:14;;;;;;;;;;;;;;;17.15;89.60;95933.63;30001;982;1881;-56
2022/09/15 00:08:45;;;;;;;;;;;;;;;17.16;89.21;95931.69;30001;982;1877;-56
2022/09/15 00:09:16;;;;;;;;;;;;;;;17.15;89.34;95928.16;30001;982;1881;-56
2022/09/15 00:09:47;;;;;;;;;;;;;;;17.15;89.30;95933.63;30001;983;1876;-56
2022/09/15 00:10:18;;;;;;;;;;;;;;;17.13;89.36;95924.97;30001;983;1880;-56
2022/09/15 00:10:51;;;;;;;;;;;;;;;17.15;89.47;95930.91;30001;983;1863;-56
2022/09/15 00:11:26;;;;;;;;;;;;;;;17.14;89.44;95926.56;30001;983;1871;-55
2022/09/15 00:12:00;;;;;;;;;;;;;;;17.14;89.79;95923.03;30001;983;1876;-55
2022/09/15 00:12:32;;;;;;;;;;;;;;;17.16;89.70;95917.97;30001;983;1880;-56
2022/09/15 00:13:03;;;;;;;;;;;;;;;17.18;89.07;95924.69;30001;983;1863;-63
2022/09/15 00:13:34;;;;;;;;;;;;;;;17.20;89.06;95919.66;30001;983;1796;-56
2022/09/15 00:14:10;;;;;;;;;;;;;;;17.21;88.57;95917.72;30001;983;1876;-56
2022/09/15 00:14:41;;;;;;;;;;;;;;;17.20;88.58;95919.66;30001;961;1902;-56
2022/09/15 00:15:13;;;;;;;;;;;;;;;17.19;88.39;95923.56;30001;982;1876;-55
2022/09/15 00:15:44;;;;;;;;;;;;;;;17.20;88.41;95929.81;30001;982;1868;-55
2022/09/15 00:16:15;;;;;;;;;;;;;;;17.23;87.88;95934.59;30001;982;1855;-55
2022/09/15 00:16:46;;;;;;;;;;;;;;;17.23;87.47;95918.94;30001;982;1881;-54
2022/09/15 00:17:17;;;;;;;;;;;;;;;17.26;87.18;95931.94;30001;983;1876;-56
2022/09/15 00:17:49;;;;;;;;;;;;;;;17.26;87.65;95923.72;30001;972;1901;-56
2022/09/15 00:18:20;;;;;;;;;;;;;;;17.25;88.25;95921.31;30001;983;1876;-56
2022/09/15 00:18:51;;;;;;;;;;;;;;;17.22;88.06;95922.84;30001;983;1880;-56
2022/09/15 00:19:22;;;;;;;;;;;;;;;17.23;88.06;95932.66;30001;983;1876;-55
2022/09/15 00:19:53;;;;;;;;;;;;;;;17.22;87.81;95927.53;30001;983;1880;-64
2022/09/15 00:20:23;;;;;;;;;;;;;;;17.22;87.45;95928.31;30001;983;1876;-55
2022/09/15 00:20:54;;;;;;;;;;;;;;;17.22;87.58;95925.56;30001;983;1880;-55
2022/09/15 00:21:27;;;;;;;;;;;;;;;17.22;87.58;95928.31;30001;983;1863;-64
2022/09/15 00:21:58;;;;;;;;;;;;;;;17.20;87.57;95933.38;30001;982;1872;-56
2022/09/15 00:22:28;;;;;;;;;;;;;;;17.19;87.67;95931.78;30001;982;1877;-56
2022/09/15 00:22:59;;;;;;;;;;;;;;;17.19;87.68;95933.72;30001;982;1881;-56
2022/09/15 00:23:30;;;;;;;;;;;;;;;17.17;88.22;95931.34;30001;982;1876;-64
2022/09/15 00:24:01;;;;;;;;;;;;;;;17.17;87.85;95925.84;30001;982;1881;-55
2022/09/15 00:24:32;;;;;;;;;;;;;;;17.19;87.60;95923.56;30001;983;1876;-56
2022/09/15 00:25:04;;;;;;;;;;;;;;;17.20;87.90;95925.13;30001;983;1880;-57
2022/09/15 00:25:40;;;;;;;;;;;;;;;17.18;88.10;95921.16;30001;983;1876;-56
2022/09/15 00:26:12;;;;;;;;;;;;;;;17.17;88.21;95925.84;30001;983;1880;-57
2022/09/15 00:26:43;;;;;;;;;;;;;;;17.15;87.80;95928.16;30001;983;1863;-56
2022/09/15 00:27:15;;;;;;;;;;;;;;;17.15;87.61;95930.09;30001;983;1872;-56
2022/09/15 00:27:46;;;;;;;;;;;;;;;17.16;87.59;95924.25;30001;983;1876;-56
2022/09/15 00:28:18;;;;;;;;;;;;;;;17.18;87.14;95921.97;30001;983;1881;-56
2022/09/15 00:29:57;;;;;;;;;;;;;;;17.24;85.84;95923.28;89988;930;16000;-54
2022/09/15 00:30:28;;;;;;;;;;;;;;;17.25;85.58;95916.63;30001;982;1868;-54
2022/09/15 00:30:59;;;;;;;;;;;;;;;17.26;85.61;95914.69;30001;982;1868;-57
2022/09/15 00:31:31;;;;;;;;;;;;;;;17.25;85.58;95911.16;30001;982;1881;-55
2022/09/15 00:32:02;;;;;;;;;;;;;;;17.25;85.44;95922.13;30001;982;1863;-55
2022/09/15 00:32:33;;;;;;;;;;;;;;;17.24;85.76;95917.78;30001;983;1871;-55
2022/09/15 00:33:03;;;;;;;;;;;;;;;17.25;85.76;95911.16;30001;983;1876;-55
2022/09/15 00:33:34;;;;;;;;;;;;;;;17.25;85.65;95916.63;30001;983;1880;-56
2022/09/15 00:34:06;;;;;;;;;;;;;;;17.23;85.62;95907.97;30001;983;1876;-54
2022/09/15 00:34:36;;;;;;;;;;;;;;;17.24;85.78;95906.81;30001;983;1880;-54
2022/09/15 00:35:08;;;;;;;;;;;;;;;17.23;85.94;95907.97;30001;983;1876;-56
2022/09/15 00:35:39;;;;;;;;;;;;;;;17.23;85.86;95907.19;30001;983;1880;-63
2022/09/15 00:36:11;;;;;;;;;;;;;;;17.26;85.08;95904.50;30001;983;1877;-55
2022/09/15 00:36:41;;;;;;;;;;;;;;;17.27;85.04;95911.59;30001;983;1881;-54
2022/09/15 00:37:12;;;;;;;;;;;;;;;17.26;84.83;95901.78;30001;983;1863;-56
2022/09/15 00:37:43;;;;;;;;;;;;;;;17.26;84.67;95910.00;30001;982;1872;-55
2022/09/15 00:38:15;;;;;;;;;;;;;;;17.27;85.04;95914.31;30001;982;1876;-55
2022/09/15 00:38:45;;;;;;;;;;;;;;;17.26;84.78;95910.00;30001;982;1881;-56
2022/09/15 00:39:17;;;;;;;;;;;;;;;17.25;85.27;95913.91;30001;982;1877;-56
2022/09/15 00:39:48;;;;;;;;;;;;;;;17.24;85.28;95909.56;30001;983;1880;-55
2022/09/15 00:40:19;;;;;;;;;;;;;;;17.24;85.07;95917.78;30001;971;1888;-55
2022/09/15 00:40:51;;;;;;;;;;;;;;;17.24;85.49;95912.31;30001;983;1880;-56
2022/09/15 00:41:22;;;;;;;;;;;;;;;17.24;85.13;95908.78;30001;983;1876;-55
2022/09/15 00:41:53;;;;;;;;;;;;;;;17.26;85.11;95912.75;30001;983;1880;-63
2022/09/15 00:42:24;;;;;;;;;;;;;;;17.26;84.89;95912.75;30001;983;1863;-55
2022/09/15 00:42:55;;;;;;;;;;;;;;;17.26;84.88;95918.22;30001;983;1872;-57
2022/09/15 00:43:45;;;;;;;;;;;;;;;17.27;84.55;95911.59;30001;983;1863;-60
2022/09/15 00:44:55;;;;;;;;;;;;;;;17.31;84.23;95915.19;30001;983;1863;-55
2022/09/15 00:45:26;;;;;;;;;;;;;;;17.37;83.60;95913.75;30001;982;1872;-56
2022/09/15 00:45:57;;;;;;;;;;;;;;;17.37;83.90;95916.47;30001;982;1881;-56
2022/09/15 00:46:32;;;;;;;;;;;;;;;17.40;83.86;95906.75;30001;982;1876;-55
2022/09/15 00:47:05;;;;;;;;;;;;;;;17.40;83.57;95913.03;30001;982;1881;-55
2022/09/15 00:47:38;;;;;;;;;;;;;;;17.39;83.62;95900.47;30001;983;1876;-56
2022/09/15 00:48:11;;;;;;;;;;;;;;;17.38;84.01;95912.59;30001;983;1880;-56
2022/09/15 00:49:08;;;;;;;;;;;;;;;17.35;83.84;95910.56;30001;983;1863;-55
2022/09/15 00:49:40;;;;;;;;;;;;;;;17.34;84.51;95913.66;30001;983;1867;-56
2022/09/15 00:50:16;;;;;;;;;;;;;;;17.34;84.42;95908.97;30001;983;1863;-65
2022/09/15 00:50:50;;;;;;;;;;;;;;;17.33;84.59;95910.13;30001;983;1872;-65
2022/09/15 00:51:23;;;;;;;;;;;;;;;17.32;84.60;95911.31;30001;983;1877;-56
2022/09/15 00:52:12;;;;;;;;;;;;;;;17.31;84.54;95909.72;30001;983;1880;-65
2022/09/15 00:52:48;;;;;;;;;;;;;;;17.29;84.66;95906.53;30001;982;1855;-55
2022/09/15 00:53:23;;;;;;;;;;;;;;;17.29;85.04;95916.72;30001;982;1859;-55
2022/09/15 00:53:54;;;;;;;;;;;;;;;17.29;85.11;95913.97;30001;982;1876;-64
2022/09/15 00:54:30;;;;;;;;;;;;;;;17.34;84.72;95917.19;30001;982;1881;-55
2022/09/15 00:55:24;;;;;;;;;;;;;;;17.35;84.63;95916.03;30001;983;1876;-55
2022/09/15 00:55:55;;;;;;;;;;;;;;;17.33;84.55;95912.06;30001;983;1876;-56
2022/09/15 00:56:26;;;;;;;;;;;;;;;17.31;84.81;95909.72;30001;983;1876;-64
2022/09/15 00:56:59;;;;;;;;;;;;;;;17.31;85.20;95904.25;30001;983;1880;-56
2022/09/15 00:57:46;;;;;;;;;;;;;;;17.31;84.93;95908.94;30001;983;1876;-56
2022/09/15 00:58:24;;;;;;;;;;;;;;;17.31;85.06;95904.25;30001;983;1881;-56
2022/09/15 00:58:58;;;;;;;;;;;;;;;17.30;85.19;95907.34;30001;983;1863;-56
2022/09/15 00:59:32;;;;;;;;;;;;;;;17.27;85.18;95908.84;30001;982;1872;-55
2022/09/15 01:00:06;;;;;;;;;;;;;;;17.26;85.53;95903.72;30001;982;1868;-56
2022/09/15 01:00:40;;;;;;;;;;;;;;;17.25;85.31;95908.41;30001;982;1876;-56
2022/09/15 01:01:12;;;;;;;;;;;;;;;17.23;85.87;95899.75;30001;982;1881;-65
2022/09/15 01:01:44;;;;;;;;;;;;;;;17.21;86.36;95904.78;30001;982;1886;-55
2022/09/15 01:02:18;;;;;;;;;;;;;;;17.19;86.18;95906.31;30001;982;1868;-55
2022/09/15 01:02:49;;;;;;;;;;;;;;;17.20;86.38;95908.69;30001;983;1876;-56
2022/09/15 01:03:21;;;;;;;;;;;;;;;17.18;86.27;95904.72;30001;983;1881;-56
2022/09/15 01:03:52;;;;;;;;;;;;;;;17.18;86.11;95904.72;30001;983;1885;-56
2022/09/15 01:04:23;;;;;;;;;;;;;;;17.17;86.34;95903.91;30001;983;1880;-56
2022/09/15 01:04:55;;;;;;;;;;;;;;;17.16;87.06;95907.81;30001;983;1885;-56
2022/09/15 01:05:35;;;;;;;;;;;;;;;17.14;86.81;95912.88;30001;983;1880;-64
2022/09/15 01:06:11;;;;;;;;;;;;;;;17.11;86.98;95910.84;30001;983;1872;-55
2022/09/15 01:06:46;;;;;;;;;;;;;;;17.11;87.14;95916.31;30001;982;1872;-55
2022/09/15 01:07:19;;;;;;;;;;;;;;;17.09;87.27;95919.41;30001;982;1885;-64
2022/09/15 01:08:06;;;;;;;;;;;;;;;17.08;87.39;95917.03;30001;982;1881;-55
2022/09/15 01:08:43;;;;;;;;;;;;;;;17.15;87.05;95910.91;30001;982;1885;-55
2022/09/15 01:09:18;;;;;;;;;;;;;;;17.15;86.68;95914.44;30001;982;1881;-56
2022/09/15 01:09:51;;;;;;;;;;;;;;;17.14;86.94;95912.06;30001;982;1885;-56
2022/09/15 01:10:25;;;;;;;;;;;;;;;17.13;86.80;95914.00;30001;983;1881;-56
2022/09/15 01:10:56;;;;;;;;;;;;;;;17.13;86.85;95916.75;30001;983;1885;-55
2022/09/15 01:11:28;;;;;;;;;;;;;;;17.13;86.64;95913.22;30001;983;1867;-65
2022/09/15 01:12:03;;;;;;;;;;;;;;;17.11;86.51;95921.78;30001;987;1868;-56
2022/09/15 01:12:34;;;;;;;;;;;;;;;17.12;86.64;95920.66;30001;983;1885;-56
2022/09/15 01:13:09;;;;;;;;;;;;;;;17.12;86.49;95917.91;30001;983;1880;-56
2022/09/15 01:13:40;;;;;;;;;;;;;;;17.11;86.91;95926.47;30001;983;1885;-56
2022/09/15 01:14:11;;;;;;;;;;;;;;;17.10;86.97;95920.22;30001;982;1867;-65
2022/09/15 01:14:42;;;;;;;;;;;;;;;17.11;87.08;95915.53;30001;982;1876;-55
2022/09/15 01:15:13;;;;;;;;;;;;;;;17.17;86.36;95914.88;30001;976;1897;-56
2022/09/15 01:16:07;;;;;;;;;;;;;;;17.17;86.44;95916.84;30001;982;1885;-55
2022/09/15 01:16:47;;;;;;;;;;;;;;;17.17;86.21;95911.34;30001;982;1877;-56
2022/09/15 01:17:41;;;;;;;;;;;;;;;17.16;86.58;95916.03;30001;982;1886;-56
2022/09/15 01:18:31;;;;;;;;;;;;;;;17.14;86.49;95912.06;30001;983;1876;-56
2022/09/15 01:19:20;;;;;;;;;;;;;;;17.11;86.61;95908.09;30001;983;1881;-56
2022/09/15 01:20:23;;;;;;;;;;;;;;;17.12;86.75;95908.87;30001;983;1859;-54
2022/09/15 01:21:04;;;;;;;;;;;;;;;17.13;86.41;95908.53;30001;983;1859;-56
2022/09/15 01:21:48;;;;;;;;;;;;;;;17.13;86.41;95918.69;30001;983;1867;-56
2022/09/15 01:22:47;;;;;;;;;;;;;;;17.11;86.64;95913.56;30001;982;1876;-56
2022/09/15 01:23:36;;;;;;;;;;;;;;;17.11;86.24;95910.84;30001;982;1876;-56
2022/09/15 01:24:29;;;;;;;;;;;;;;;17.11;86.24;95913.56;30001;986;1884;-56
2022/09/15 01:25:34;;;;;;;;;;;;;;;17.15;86.30;95911.72;30001;982;1863;-55
2022/09/15 01:26:31;;;;;;;;;;;;;;;17.24;85.42;95903.28;30001;983;1872;-56
2022/09/15 01:27:24;;;;;;;;;;;;;;;17.24;85.75;95909.56;30001;983;1881;-56
2022/09/15 01:28:15;;;;;;;;;;;;;;;17.19;85.78;95896.12;30001;983;1867;-56
2022/09/15 01:29:12;;;;;;;;;;;;;;;17.17;86.02;95903.13;30001;983;1868;-55
2022/09/15 01:30:11;;;;;;;;;;;;;;;17.16;85.87;95896.84;30001;982;1881;-55
2022/09/15 01:30:48;;;;;;;;;;;;;;;17.13;86.29;95897.56;30001;982;1877;-56
2022/09/15 01:31:24;;;;;;;;;;;;;;;17.12;86.24;95895.97;30001;982;1885;-56
2022/09/15 01:33:18;;;;;;;;;;;;;;;17.15;86.57;95895.25;30001;983;1872;-55
2022/09/15 01:34:04;;;;;;;;;;;;;;;17.14;86.36;95893.69;30001;983;1867;-55
2022/09/15 01:34:40;;;;;;;;;;;;;;;17.11;86.16;95888.91;30001;983;1885;-55
2022/09/15 01:35:24;;;;;;;;;;;;;;;17.08;86.08;95884.13;30001;983;1881;-56
2022/09/15 01:36:03;;;;;;;;;;;;;;;17.06;86.32;95880.97;30001;983;1885;-55
2022/09/15 01:36:55;;;;;;;;;;;;;;;17.06;86.63;95878.22;30001;983;1881;-55
2022/09/15 01:37:29;;;;;;;;;;;;;;;17.05;86.60;95879.38;30001;982;1885;-55
2022/09/15 01:38:38;;;;;;;;;;;;;;;17.10;86.35;95876.34;30001;982;1868;-55
2022/09/15 01:39:14;;;;;;;;;;;;;;;17.12;85.87;95879.53;30001;982;1872;-55
2022/09/15 01:39:49;;;;;;;;;;;;;;;17.12;85.99;95884.22;30001;983;1880;-56
2022/09/15 01:40:23;;;;;;;;;;;;;;;17.10;85.80;95881.84;30001;983;1872;-55
2022/09/15 01:41:06;;;;;;;;;;;;;;;17.11;86.03;95882.63;30001;983;1872;-55
2022/09/15 01:41:41;;;;;;;;;;;;;;;17.12;85.64;95885.00;30001;983;1885;-55
2022/09/15 01:42:14;;;;;;;;;;;;;;;17.14;85.89;95890.94;30001;983;1881;-56
2022/09/15 01:42:46;;;;;;;;;;;;;;;17.14;85.43;95899.16;30001;983;1886;-56
2022/09/15 01:43:22;;;;;;;;;;;;;;;17.14;85.66;95888.19;30001;983;1881;-55
2022/09/15 01:44:01;;;;;;;;;;;;;;;17.14;85.73;95885.44;30001;983;1886;-59
2022/09/15 01:44:34;;;;;;;;;;;;;;;17.15;84.99;95889.78;30001;982;1868;-55
2022/09/15 01:45:11;;;;;;;;;;;;;;;17.14;85.25;95890.94;30001;982;1877;-56
2022/09/15 01:45:44;;;;;;;;;;;;;;;17.13;85.22;95889.34;30001;982;1868;-56
2022/09/15 01:46:16;;;;;;;;;;;;;;;17.11;85.03;95886.16;30001;982;1877;-55
2022/09/15 01:46:51;;;;;;;;;;;;;;;17.10;85.37;95890.06;30001;982;1881;-55
2022/09/15 01:47:27;;;;;;;;;;;;;;;17.14;85.14;95890.94;30001;983;1885;-56
2022/09/15 01:48:00;;;;;;;;;;;;;;;17.12;85.51;95885.00;30001;983;1867;-56
2022/09/15 01:48:33;;;;;;;;;;;;;;;17.08;85.58;95887.69;30001;983;1876;-55
2022/09/15 01:49:07;;;;;;;;;;;;;;;17.08;85.99;95884.94;30001;983;1881;-55
2022/09/15 01:49:47;;;;;;;;;;;;;;;17.12;85.68;95890.50;30001;983;1886;-65
2022/09/15 01:50:34;;;;;;;;;;;;;;;17.12;85.39;95884.22;30001;983;1881;-55
2022/09/15 01:51:06;;;;;;;;;;;;;;;17.10;85.22;95879.09;30001;983;1885;-56
2022/09/15 01:51:38;;;;;;;;;;;;;;;17.14;84.89;95882.72;30001;983;1881;-56
2022/09/15 01:52:09;;;;;;;;;;;;;;;17.20;84.33;95886.75;30001;982;1872;-55
2022/09/15 01:52:42;;;;;;;;;;;;;;;17.18;84.26;95880.84;30001;982;1872;-56
2022/09/15 01:53:15;;;;;;;;;;;;;;;17.19;84.71;95881.62;30001;982;1886;-56
2022/09/15 01:53:46;;;;;;;;;;;;;;;17.18;84.10;95880.84;30001;982;1881;-64
2022/09/15 01:54:23;;;;;;;;;;;;;;;17.15;84.37;95881.56;30001;982;1886;-55
2022/09/15 01:55:00;;;;;;;;;;;;;;;17.14;84.84;95877.22;30001;983;1868;-55
2022/09/15 01:55:36;;;;;;;;;;;;;;;17.12;84.48;95879.53;30001;983;1863;-55
2022/09/15 01:56:09;;;;;;;;;;;;;;;17.08;84.49;95873.19;30001;983;1881;-55
2022/09/15 01:56:40;;;;;;;;;;;;;;;17.07;84.57;95886.09;30001;983;1885;-55
2022/09/15 01:57:11;;;;;;;;;;;;;;;17.06;85.09;95886.44;30001;983;1881;-55
2022/09/15 01:57:44;;;;;;;;;;;;;;;17.04;84.53;95884.06;30001;983;1872;-56
2022/09/15 01:58:17;;;;;;;;;;;;;;;17.06;85.05;95886.44;30001;983;1872;-63
2022/09/15 01:58:50;;;;;;;;;;;;;;;17.09;84.15;95878.31;30001;983;1885;-55
2022/09/15 01:59:24;;;;;;;;;;;;;;;17.13;84.25;95886.59;30001;983;1881;-63
2022/09/15 01:59:56;;;;;;;;;;;;;;;17.19;83.56;95887.13;30001;982;1809;-55
2022/09/15 02:00:28;;;;;;;;;;;;;;;17.19;83.56;95884.38;30001;982;1881;-57
2022/09/15 02:01:26;;;;;;;;;;;;;;;17.15;83.60;95889.78;30001;982;1886;-56
2022/09/15 02:03:16;;;;;;;;;;;;;;;17.13;83.42;95883.88;89988;190;16000;-55
2022/09/15 02:03:50;;;;;;;;;;;;;;;17.09;83.77;95885.72;30001;982;1869;-54
2022/09/15 02:04:30;;;;;;;;;;;;;;;17.07;84.14;95885.28;30001;982;1868;-55
2022/09/15 02:05:05;;;;;;;;;;;;;;;17.05;84.56;95884.84;30001;982;1868;-54
2022/09/15 02:05:40;;;;;;;;;;;;;;;17.11;83.78;95883.44;30001;983;1866;-55
2022/09/15 02:06:18;;;;;;;;;;;;;;;17.14;83.48;95879.19;30001;983;1816;-55
2022/09/15 02:06:52;;;;;;;;;;;;;;;17.12;83.30;95885.00;30001;983;1875;-55
2022/09/15 02:07:37;;;;;;;;;;;;;;;17.08;83.67;95881.41;30001;983;1880;-55
2022/09/15 02:08:18;;;;;;;;;;;;;;;17.05;83.54;95884.84;30001;983;1876;-55
2022/09/15 02:09:00;;;;;;;;;;;;;;;17.04;83.92;95883.25;30001;983;1880;-55
2022/09/15 02:09:34;;;;;;;;;;;;;;;17.03;83.90;95881.69;30001;983;1876;-55
2022/09/15 02:10:16;;;;;;;;;;;;;;;17.03;83.89;95881.69;30001;982;1867;-56
2022/09/15 02:11:03;;;;;;;;;;;;;;;17.03;83.97;95881.69;30001;982;1867;-62
2022/09/15 02:11:35;;;;;;;;;;;;;;;17.02;84.00;95880.88;30001;982;1880;-62
2022/09/15 02:12:09;;;;;;;;;;;;;;;17.01;84.34;95881.25;30001;982;1876;-56
2022/09/15 02:13:06;;;;;;;;;;;;;;;17.00;84.27;95879.66;30001;982;1881;-66
2022/09/15 02:14:00;;;;;;;;;;;;;;;16.95;84.34;95875.28;30001;983;1858;-63
2022/09/15 02:14:41;;;;;;;;;;;;;;;16.96;84.52;95876.06;30001;983;1866;-55
2022/09/15 02:15:14;;;;;;;;;;;;;;;16.95;85.00;95877.22;30001;983;1863;-55
2022/09/15 02:15:50;;;;;;;;;;;;;;;16.97;84.59;95883.13;30001;983;1871;-55
2022/09/15 02:16:23;;;;;;;;;;;;;;;16.96;84.81;95878.81;30001;983;1876;-63
2022/09/15 02:16:53;;;;;;;;;;;;;;;16.94;85.25;95883.84;30001;983;1880;-66
2022/09/15 02:17:28;;;;;;;;;;;;;;;16.95;84.64;95874.47;30001;982;1876;-55
2022/09/15 02:18:00;;;;;;;;;;;;;;;16.95;84.87;95885.44;30001;982;1880;-54
2022/09/15 02:18:44;;;;;;;;;;;;;;;16.96;84.70;95876.06;30001;982;1876;-63
2022/09/15 02:19:21;;;;;;;;;;;;;;;16.97;84.50;95888.62;30001;982;1880;-55
2022/09/15 02:20:04;;;;;;;;;;;;;;;16.97;84.47;95877.66;30001;982;1877;-55
2022/09/15 02:20:43;;;;;;;;;;;;;;;16.97;84.04;95885.87;30001;983;1866;-54
2022/09/15 02:21:18;;;;;;;;;;;;;;;16.94;84.54;95884.66;30001;983;1866;-55
2022/09/15 02:22:09;;;;;;;;;;;;;;;16.99;83.85;95881.59;30001;983;1880;-55
2022/09/15 02:22:43;;;;;;;;;;;;;;;17.06;83.18;95880.97;30001;983;1875;-55
2022/09/15 02:23:20;;;;;;;;;;;;;;;17.05;83.35;95884.84;30001;983;1880;-64
2022/09/15 02:23:54;;;;;;;;;;;;;;;17.10;83.05;95881.84;30001;983;1876;-55
2022/09/15 02:24:27;;;;;;;;;;;;;;;17.16;82.52;95876.87;30001;983;1880;-55
2022/09/15 02:25:01;;;;;;;;;;;;;;;17.15;82.58;95873.34;30001;982;1876;-54
2022/09/15 02:25:43;;;;;;;;;;;;;;;17.12;82.50;95879.53;30001;982;1880;-55
2022/09/15 02:26:16;;;;;;;;;;;;;;;17.08;82.84;95881.41;30001;982;1863;-55
2022/09/15 02:26:48;;;;;;;;;;;;;;;17.05;83.07;95882.12;30001;982;1872;-54
2022/09/15 02:27:21;;;;;;;;;;;;;;;17.07;83.21;95877.87;30001;983;1875;-54
2022/09/15 02:27:54;;;;;;;;;;;;;;;17.10;82.94;95876.34;30001;983;1867;-55
2022/09/15 02:28:27;;;;;;;;;;;;;;;17.07;82.96;95871.59;30001;983;1866;-57
2022/09/15 02:29:02;;;;;;;;;;;;;;;17.06;82.99;95878.22;30001;983;1880;-56
2022/09/15 02:29:35;;;;;;;;;;;;;;;17.07;83.36;95872.38;30001;983;1876;-56
2022/09/15 02:30:10;;;;;;;;;;;;;;;17.09;83.11;95880.25;30001;983;1880;-61
2022/09/15 02:30:44;;;;;;;;;;;;;;;17.06;83.18;95881.75;30001;983;1876;-56
2022/09/15 02:31:16;;;;;;;;;;;;;;;17.03;83.09;95877.00;30001;983;1880;-55
2022/09/15 02:31:51;;;;;;;;;;;;;;;17.02;83.44;95880.88;30001;983;1876;-56
2022/09/15 02:32:23;;;;;;;;;;;;;;;17.05;83.30;95879.38;30001;982;1880;-55
2022/09/15 02:33:18;;;;;;;;;;;;;;;17.03;82.94;95887.16;30001;969;1876;-55
2022/09/15 02:33:56;;;;;;;;;;;;;;;17.01;83.28;95881.25;30001;982;1876;-56
2022/09/15 02:34:33;;;;;;;;;;;;;;;16.99;83.70;95881.59;30001;982;1880;-56
2022/09/15 02:35:06;;;;;;;;;;;;;;;16.97;83.81;95883.13;30001;983;1884;-56
2022/09/15 02:35:38;;;;;;;;;;;;;;;16.95;83.94;95891.72;30001;983;1880;-55
2022/09/15 02:36:10;;;;;;;;;;;;;;;16.94;84.27;95884.66;30001;983;1884;-61
2022/09/15 02:36:43;;;;;;;;;;;;;;;16.94;83.83;95883.84;30001;983;1880;-60
2022/09/15 02:37:16;;;;;;;;;;;;;;;16.97;83.91;95874.91;30001;983;1884;-65
2022/09/15 02:37:47;;;;;;;;;;;;;;;16.96;83.97;95882.34;30001;983;1880;-64
2022/09/15 02:38:19;;;;;;;;;;;;;;;16.94;84.24;95881.91;30001;983;1871;-56
2022/09/15 02:38:52;;;;;;;;;;;;;;;16.93;83.79;95887.75;30001;983;1871;-55
2022/09/15 02:39:28;;;;;;;;;;;;;;;16.92;83.98;95886.16;30001;983;1885;-56
2022/09/15 02:40:00;;;;;;;;;;;;;;;16.92;84.21;95886.16;30001;982;1867;-54
2022/09/15 02:40:31;;;;;;;;;;;;;;;16.92;84.31;95891.63;30001;982;1876;-64
2022/09/15 02:41:02;;;;;;;;;;;;;;;16.93;83.99;95888.53;30001;982;1880;-54
2022/09/15 02:41:34;;;;;;;;;;;;;;;16.94;83.97;95881.09;30001;982;1885;-55
2022/09/15 02:42:05;;;;;;;;;;;;;;;16.94;83.91;95881.91;30001;982;1881;-64
2022/09/15 02:42:38;;;;;;;;;;;;;;;16.95;83.83;95885.44;30001;983;1884;-55
2022/09/15 02:43:12;;;;;;;;;;;;;;;16.94;84.12;95886.59;30001;983;1879;-55
2022/09/15 02:43:44;;;;;;;;;;;;;;;16.91;84.20;95879.09;30001;983;1884;-54
2022/09/15 02:44:15;;;;;;;;;;;;;;;16.90;84.58;95878.28;30001;983;1880;-55
2022/09/15 02:44:46;;;;;;;;;;;;;;;16.90;84.29;95875.53;30001;983;1884;-55
2022/09/15 02:45:18;;;;;;;;;;;;;;;16.90;84.42;95878.28;30001;983;1867;-55
2022/09/15 02:45:49;;;;;;;;;;;;;;;16.88;84.11;95874.31;30001;983;1876;-55
2022/09/15 02:46:21;;;;;;;;;;;;;;;16.87;84.37;95864.50;30001;983;1880;-55
2022/09/15 02:46:52;;;;;;;;;;;;;;;16.87;84.51;95870.78;30001;983;1884;-55
2022/09/15 02:47:24;;;;;;;;;;;;;;;16.89;83.94;95860.25;30001;982;1880;-55
2022/09/15 02:47:56;;;;;;;;;;;;;;;16.89;84.05;95867.69;30001;982;1885;-55
2022/09/15 02:48:27;;;;;;;;;;;;;;;16.89;84.15;95871.22;30001;982;1880;-56
2022/09/15 02:48:58;;;;;;;;;;;;;;;16.89;84.18;95875.91;30001;973;1902;-55
2022/09/15 02:49:29;;;;;;;;;;;;;;;16.88;84.40;95863.34;30001;982;1881;-56
2022/09/15 02:50:00;;;;;;;;;;;;;;;16.88;84.23;95879.78;30001;983;1884;-55
2022/09/15 02:50:31;;;;;;;;;;;;;;;16.88;84.50;95877.06;30001;983;1866;-56
2022/09/15 02:51:02;;;;;;;;;;;;;;;16.88;84.11;95879.78;30001;983;1875;-55
2022/09/15 02:51:33;;;;;;;;;;;;;;;16.86;84.87;95876.63;30001;983;1880;-55
2022/09/15 02:52:04;;;;;;;;;;;;;;;16.85;85.07;95869.56;30001;983;1884;-55
2022/09/15 02:52:34;;;;;;;;;;;;;;;16.83;85.02;95869.09;30001;983;1880;-56
2022/09/15 02:53:06;;;;;;;;;;;;;;;16.81;85.12;95863.97;30001;983;1884;-56
2022/09/15 02:53:41;;;;;;;;;;;;;;;16.81;85.09;95860.44;30001;983;1880;-64
2022/09/15 02:54:12;;;;;;;;;;;;;;;16.82;84.98;95871.06;30001;982;1884;-55
2022/09/15 02:54:43;;;;;;;;;;;;;;;16.82;85.13;95867.53;30001;982;1880;-55
2022/09/15 02:55:15;;;;;;;;;;;;;;;16.85;84.86;95861.31;30001;982;1884;-55
2022/09/15 02:55:46;;;;;;;;;;;;;;;16.89;84.34;95870.44;30001;982;1867;-56
2022/09/15 02:56:17;;;;;;;;;;;;;;;16.90;84.01;95861.06;30001;982;1876;-56
2022/09/15 02:56:47;;;;;;;;;;;;;;;16.90;83.97;95875.53;30001;982;1880;-65
2022/09/15 02:57:18;;;;;;;;;;;;;;;16.91;84.04;95870.87;30001;982;1885;-56
2022/09/15 02:57:49;;;;;;;;;;;;;;;16.89;84.02;95868.47;30001;983;1866;-56
2022/09/15 02:58:20;;;;;;;;;;;;;;;16.89;84.38;95875.91;30001;983;1875;-56
2022/09/15 02:58:51;;;;;;;;;;;;;;;16.95;84.04;95872.53;30001;983;1880;-55
2022/09/15 02:59:22;;;;;;;;;;;;;;;16.95;83.89;95874.47;30001;983;1884;-55
2022/09/15 03:00:42;;;;;;;;;;;;;;;16.99;83.60;95869.84;30001;983;1884;-56
2022/09/15 03:01:14;;;;;;;;;;;;;;;16.98;83.56;95876.50;30001;983;1867;-57
2022/09/15 03:01:45;;;;;;;;;;;;;;;17.03;83.39;95873.47;30001;982;1876;-55
2022/09/15 03:02:19;;;;;;;;;;;;;;;17.02;83.61;95867.19;30001;982;1880;-55
2022/09/15 03:02:52;;;;;;;;;;;;;;;17.05;83.16;95869.22;30001;982;1872;-54
2022/09/15 03:03:23;;;;;;;;;;;;;;;17.07;83.09;95860.63;30001;982;1872;-65
2022/09/15 03:03:54;;;;;;;;;;;;;;;17.03;83.62;95866.03;30001;982;1885;-65
2022/09/15 03:04:25;;;;;;;;;;;;;;;16.97;83.89;95870.22;30001;982;1881;-55
2022/09/15 03:04:55;;;;;;;;;;;;;;;16.94;84.05;95872.88;30001;983;1884;-55
2022/09/15 03:05:27;;;;;;;;;;;;;;;16.91;84.14;95884.56;30001;983;1880;-63
2022/09/15 03:06:15;;;;;;;;;;;;;;;16.89;84.18;95870.44;30001;983;1884;-54
2022/09/15 03:06:46;;;;;;;;;;;;;;;16.93;83.92;95874.03;30001;983;1880;-55
2022/09/15 03:07:17;;;;;;;;;;;;;;;16.95;83.75;95871.75;30001;983;1885;-55
2022/09/15 03:07:48;;;;;;;;;;;;;;;16.96;84.20;95876.06;30001;983;1867;-55
2022/09/15 03:08:19;;;;;;;;;;;;;;;16.93;83.96;95872.09;30001;983;1876;-56
2022/09/15 03:08:55;;;;;;;;;;;;;;;16.90;83.90;95874.75;30001;983;1880;-55
2022/09/15 03:09:26;;;;;;;;;;;;;;;16.89;84.49;95873.16;30001;982;1885;-55
2022/09/15 03:09:57;;;;;;;;;;;;;;;16.91;83.94;95879.09;30001;982;1881;-56
2022/09/15 03:10:28;;;;;;;;;;;;;;;16.94;83.68;95883.84;30001;982;1885;-63
2022/09/15 03:10:59;;;;;;;;;;;;;;;16.92;83.97;95883.41;30001;982;1880;-63
2022/09/15 03:11:30;;;;;;;;;;;;;;;16.93;83.60;95876.78;30001;982;1885;-55
2022/09/15 03:12:01;;;;;;;;;;;;;;;16.94;83.63;95881.09;30001;982;1881;-55
2022/09/15 03:12:39;;;;;;;;;;;;;;;16.93;83.63;95877.56;30001;983;1884;-55